sensor_id;sensor_type;location;lat;lon;timestamp;P1;durP1;ratioP1;P2;durP2;ratioP2
2173;SDS011;1093;51.424;11.764;2024-03-22T00:02:06;23.40;;;11.37;;
2173;SDS011;1093;51.424;11.764;2024-03-22T00:04:32;19.43;;;10.67;;
2173;SDS011;1093;51.424;11.764;2024-03-22T00:06:58;14.67;;;10.50;;
2173;SDS011;1093;51.424;11.764;2024-03-22T00:09:24;14.40;;;9.00;;
2173;SDS011;1093;51.424;11.764;2024-03-22T00:11:51;16.50;;;9.87;;
2173;SDS011;1093;51.424;11.764;2024-03-22T00:14:16;16.13;;;9.93;;
2173;SDS011;1093;51.424;11.764;2024-03-22T00:16:45;17.30;;;10.87;;
2173;SDS011;1093;51.424;11.764;2024-03-22T00:19:10;16.03;;;11.67;;
2173;SDS011;1093;51.424;11.764;2024-03-22T00:21:37;19.50;;;10.10;;
2173;SDS011;1093;51.424;11.764;2024-03-22T00:24:03;15.80;;;9.00;;
2173;SDS011;1093;51.424;11.764;2024-03-22T00:26:30;13.17;;;8.83;;
2173;SDS011;1093;51.424;11.764;2024-03-22T00:28:56;13.67;;;9.40;;
2173;SDS011;1093;51.424;11.764;2024-03-22T00:31:24;12.20;;;7.70;;
2173;SDS011;1093;51.424;11.764;2024-03-22T00:33:51;19.07;;;8.73;;
2173;SDS011;1093;51.424;11.764;2024-03-22T00:36:17;11.17;;;8.67;;
2173;SDS011;1093;51.424;11.764;2024-03-22T00:38:43;17.97;;;9.53;;
2173;SDS011;1093;51.424;11.764;2024-03-22T00:41:10;13.17;;;8.23;;
2173;SDS011;1093;51.424;11.764;2024-03-22T00:43:35;14.77;;;9.03;;
2173;SDS011;1093;51.424;11.764;2024-03-22T00:46:02;14.80;;;9.13;;
2173;SDS011;1093;51.424;11.764;2024-03-22T00:48:28;12.13;;;8.50;;
2173;SDS011;1093;51.424;11.764;2024-03-22T00:50:57;9.20;;;6.43;;
2173;SDS011;1093;51.424;11.764;2024-03-22T00:53:22;13.17;;;8.37;;
2173;SDS011;1093;51.424;11.764;2024-03-22T00:55:49;18.07;;;9.40;;
2173;SDS011;1093;51.424;11.764;2024-03-22T00:58:16;11.73;;;6.93;;
2173;SDS011;1093;51.424;11.764;2024-03-22T01:00:44;13.60;;;10.10;;
2173;SDS011;1093;51.424;11.764;2024-03-22T01:03:10;12.93;;;9.03;;
2173;SDS011;1093;51.424;11.764;2024-03-22T01:05:36;11.00;;;7.73;;
2173;SDS011;1093;51.424;11.764;2024-03-22T01:08:04;11.20;;;7.40;;
2173;SDS011;1093;51.424;11.764;2024-03-22T01:10:32;14.27;;;8.57;;
2173;SDS011;1093;51.424;11.764;2024-03-22T01:12:58;13.10;;;8.57;;
2173;SDS011;1093;51.424;11.764;2024-03-22T01:15:25;15.20;;;8.50;;
2173;SDS011;1093;51.424;11.764;2024-03-22T01:17:51;11.37;;;7.90;;
2173;SDS011;1093;51.424;11.764;2024-03-22T01:20:18;12.00;;;7.73;;
2173;SDS011;1093;51.424;11.764;2024-03-22T01:22:44;13.97;;;9.60;;
2173;SDS011;1093;51.424;11.764;2024-03-22T01:25:12;16.10;;;9.90;;
2173;SDS011;1093;51.424;11.764;2024-03-22T01:27:38;16.63;;;8.97;;
2173;SDS011;1093;51.424;11.764;2024-03-22T01:30:05;15.63;;;9.13;;
2173;SDS011;1093;51.424;11.764;2024-03-22T01:32:31;13.83;;;8.00;;
2173;SDS011;1093;51.424;11.764;2024-03-22T01:34:58;14.93;;;9.80;;
2173;SDS011;1093;51.424;11.764;2024-03-22T01:37:24;14.10;;;10.00;;
2173;SDS011;1093;51.424;11.764;2024-03-22T01:39:50;15.00;;;9.67;;
2173;SDS011;1093;51.424;11.764;2024-03-22T01:42:17;15.83;;;10.13;;
2173;SDS011;1093;51.424;11.764;2024-03-22T01:44:44;14.17;;;9.67;;
2173;SDS011;1093;51.424;11.764;2024-03-22T01:47:10;15.60;;;9.30;;
2173;SDS011;1093;51.424;11.764;2024-03-22T01:49:37;15.23;;;10.80;;
2173;SDS011;1093;51.424;11.764;2024-03-22T01:52:03;12.70;;;8.37;;
2173;SDS011;1093;51.424;11.764;2024-03-22T01:54:31;13.13;;;8.73;;
2173;SDS011;1093;51.424;11.764;2024-03-22T01:56:56;12.93;;;9.70;;
2173;SDS011;1093;51.424;11.764;2024-03-22T01:59:25;16.27;;;9.80;;
2173;SDS011;1093;51.424;11.764;2024-03-22T02:01:51;13.17;;;9.63;;
2173;SDS011;1093;51.424;11.764;2024-03-22T02:04:18;14.07;;;10.60;;
2173;SDS011;1093;51.424;11.764;2024-03-22T02:06:44;13.83;;;9.17;;
2173;SDS011;1093;51.424;11.764;2024-03-22T02:09:10;18.17;;;10.77;;
2173;SDS011;1093;51.424;11.764;2024-03-22T02:11:36;16.27;;;9.37;;
2173;SDS011;1093;51.424;11.764;2024-03-22T02:14:05;15.20;;;10.37;;
2173;SDS011;1093;51.424;11.764;2024-03-22T02:16:32;18.60;;;9.37;;
2173;SDS011;1093;51.424;11.764;2024-03-22T02:18:59;16.97;;;11.80;;
2173;SDS011;1093;51.424;11.764;2024-03-22T02:21:24;19.77;;;10.67;;
2173;SDS011;1093;51.424;11.764;2024-03-22T02:23:52;14.33;;;10.20;;
2173;SDS011;1093;51.424;11.764;2024-03-22T02:26:18;15.90;;;10.17;;
2173;SDS011;1093;51.424;11.764;2024-03-22T02:28:45;14.23;;;10.37;;
2173;SDS011;1093;51.424;11.764;2024-03-22T02:31:11;17.40;;;10.27;;
2173;SDS011;1093;51.424;11.764;2024-03-22T02:33:37;18.70;;;10.80;;
2173;SDS011;1093;51.424;11.764;2024-03-22T02:36:03;16.77;;;11.03;;
2173;SDS011;1093;51.424;11.764;2024-03-22T02:38:31;15.17;;;8.60;;
2173;SDS011;1093;51.424;11.764;2024-03-22T02:40:58;17.80;;;10.77;;
2173;SDS011;1093;51.424;11.764;2024-03-22T02:43:25;17.83;;;10.57;;
2173;SDS011;1093;51.424;11.764;2024-03-22T02:45:52;16.67;;;9.80;;
2173;SDS011;1093;51.424;11.764;2024-03-22T02:48:18;21.17;;;11.70;;
2173;SDS011;1093;51.424;11.764;2024-03-22T02:50:44;16.73;;;11.53;;
2173;SDS011;1093;51.424;11.764;2024-03-22T02:53:11;18.13;;;11.07;;
2173;SDS011;1093;51.424;11.764;2024-03-22T02:55:36;17.90;;;11.00;;
2173;SDS011;1093;51.424;11.764;2024-03-22T02:58:05;15.43;;;10.60;;
2173;SDS011;1093;51.424;11.764;2024-03-22T03:00:32;22.03;;;12.43;;
2173;SDS011;1093;51.424;11.764;2024-03-22T03:03:02;22.50;;;12.70;;
2173;SDS011;1093;51.424;11.764;2024-03-22T03:05:28;18.70;;;11.47;;
2173;SDS011;1093;51.424;11.764;2024-03-22T03:07:54;17.30;;;11.87;;
2173;SDS011;1093;51.424;11.764;2024-03-22T03:10:20;20.10;;;11.17;;
2173;SDS011;1093;51.424;11.764;2024-03-22T03:12:46;19.10;;;11.80;;
2173;SDS011;1093;51.424;11.764;2024-03-22T03:15:14;24.10;;;13.23;;
2173;SDS011;1093;51.424;11.764;2024-03-22T03:17:41;28.10;;;13.90;;
2173;SDS011;1093;51.424;11.764;2024-03-22T03:20:07;21.57;;;13.23;;
2173;SDS011;1093;51.424;11.764;2024-03-22T03:22:35;26.57;;;12.50;;
2173;SDS011;1093;51.424;11.764;2024-03-22T03:25:01;26.67;;;13.83;;
2173;SDS011;1093;51.424;11.764;2024-03-22T03:27:30;16.97;;;12.63;;
2173;SDS011;1093;51.424;11.764;2024-03-22T03:29:55;25.20;;;13.47;;
2173;SDS011;1093;51.424;11.764;2024-03-22T03:32:23;23.90;;;12.87;;
2173;SDS011;1093;51.424;11.764;2024-03-22T03:34:49;20.73;;;13.90;;
2173;SDS011;1093;51.424;11.764;2024-03-22T03:37:16;23.63;;;13.37;;
2173;SDS011;1093;51.424;11.764;2024-03-22T03:39:42;24.63;;;13.63;;
2173;SDS011;1093;51.424;11.764;2024-03-22T03:42:09;21.60;;;14.30;;
2173;SDS011;1093;51.424;11.764;2024-03-22T03:44:35;22.60;;;14.37;;
2173;SDS011;1093;51.424;11.764;2024-03-22T03:47:02;22.00;;;13.57;;
2173;SDS011;1093;51.424;11.764;2024-03-22T03:49:29;30.67;;;15.60;;
2173;SDS011;1093;51.424;11.764;2024-03-22T03:51:56;24.33;;;13.10;;
2173;SDS011;1093;51.424;11.764;2024-03-22T03:54:21;19.53;;;10.87;;
2173;SDS011;1093;51.424;11.764;2024-03-22T03:56:48;23.77;;;12.60;;
2173;SDS011;1093;51.424;11.764;2024-03-22T03:59:14;24.13;;;13.30;;
2173;SDS011;1093;51.424;11.764;2024-03-22T04:01:40;25.87;;;12.27;;
2173;SDS011;1093;51.424;11.764;2024-03-22T04:04:06;24.57;;;13.17;;
2173;SDS011;1093;51.424;11.764;2024-03-22T04:06:35;22.27;;;13.37;;
2173;SDS011;1093;51.424;11.764;2024-03-22T04:09:00;22.30;;;12.33;;
2173;SDS011;1093;51.424;11.764;2024-03-22T04:11:28;21.20;;;12.00;;
2173;SDS011;1093;51.424;11.764;2024-03-22T04:13:53;24.40;;;12.07;;
2173;SDS011;1093;51.424;11.764;2024-03-22T04:16:20;21.20;;;11.93;;
2173;SDS011;1093;51.424;11.764;2024-03-22T04:18:47;23.33;;;13.63;;
2173;SDS011;1093;51.424;11.764;2024-03-22T04:21:14;34.20;;;14.10;;
2173;SDS011;1093;51.424;11.764;2024-03-22T04:23:42;19.70;;;12.00;;
2173;SDS011;1093;51.424;11.764;2024-03-22T04:26:08;22.50;;;12.80;;
2173;SDS011;1093;51.424;11.764;2024-03-22T04:28:34;18.83;;;12.30;;
2173;SDS011;1093;51.424;11.764;2024-03-22T04:31:01;21.73;;;14.40;;
2173;SDS011;1093;51.424;11.764;2024-03-22T04:33:30;30.00;;;14.53;;
2173;SDS011;1093;51.424;11.764;2024-03-22T04:35:58;25.13;;;14.17;;
2173;SDS011;1093;51.424;11.764;2024-03-22T04:38:25;22.17;;;13.00;;
2173;SDS011;1093;51.424;11.764;2024-03-22T04:40:54;24.43;;;13.53;;
2173;SDS011;1093;51.424;11.764;2024-03-22T04:43:22;22.90;;;13.50;;
2173;SDS011;1093;51.424;11.764;2024-03-22T04:45:49;22.87;;;14.70;;
2173;SDS011;1093;51.424;11.764;2024-03-22T04:48:18;22.00;;;12.57;;
2173;SDS011;1093;51.424;11.764;2024-03-22T04:50:44;25.00;;;13.50;;
2173;SDS011;1093;51.424;11.764;2024-03-22T04:53:12;26.90;;;15.13;;
2173;SDS011;1093;51.424;11.764;2024-03-22T04:55:38;23.67;;;13.97;;
2173;SDS011;1093;51.424;11.764;2024-03-22T04:58:11;24.17;;;14.30;;
2173;SDS011;1093;51.424;11.764;2024-03-22T05:00:38;22.40;;;15.07;;
2173;SDS011;1093;51.424;11.764;2024-03-22T05:03:04;23.00;;;12.93;;
2173;SDS011;1093;51.424;11.764;2024-03-22T05:05:30;26.77;;;14.00;;
2173;SDS011;1093;51.424;11.764;2024-03-22T05:07:57;27.57;;;15.40;;
2173;SDS011;1093;51.424;11.764;2024-03-22T05:10:22;23.60;;;13.97;;
2173;SDS011;1093;51.424;11.764;2024-03-22T05:12:49;27.90;;;15.70;;
2173;SDS011;1093;51.424;11.764;2024-03-22T05:15:16;30.40;;;15.97;;
2173;SDS011;1093;51.424;11.764;2024-03-22T05:17:44;25.87;;;16.90;;
2173;SDS011;1093;51.424;11.764;2024-03-22T05:20:10;30.00;;;15.90;;
2173;SDS011;1093;51.424;11.764;2024-03-22T05:22:37;27.23;;;16.00;;
2173;SDS011;1093;51.424;11.764;2024-03-22T05:25:03;32.20;;;15.27;;
2173;SDS011;1093;51.424;11.764;2024-03-22T05:27:30;31.50;;;17.20;;
2173;SDS011;1093;51.424;11.764;2024-03-22T05:29:56;27.03;;;15.20;;
2173;SDS011;1093;51.424;11.764;2024-03-22T05:32:24;26.90;;;15.20;;
2173;SDS011;1093;51.424;11.764;2024-03-22T05:34:50;26.63;;;16.67;;
2173;SDS011;1093;51.424;11.764;2024-03-22T05:37:18;32.60;;;16.13;;
2173;SDS011;1093;51.424;11.764;2024-03-22T05:39:43;24.93;;;13.63;;
2173;SDS011;1093;51.424;11.764;2024-03-22T05:42:10;29.77;;;16.33;;
2173;SDS011;1093;51.424;11.764;2024-03-22T05:44:36;29.63;;;14.50;;
2173;SDS011;1093;51.424;11.764;2024-03-22T05:47:03;34.03;;;16.10;;
2173;SDS011;1093;51.424;11.764;2024-03-22T05:49:30;25.03;;;14.37;;
2173;SDS011;1093;51.424;11.764;2024-03-22T05:51:57;28.70;;;16.50;;
2173;SDS011;1093;51.424;11.764;2024-03-22T05:54:23;32.20;;;16.20;;
2173;SDS011;1093;51.424;11.764;2024-03-22T05:56:50;24.40;;;15.07;;
2173;SDS011;1093;51.424;11.764;2024-03-22T05:59:15;25.10;;;16.07;;
2173;SDS011;1093;51.424;11.764;2024-03-22T06:01:42;32.43;;;17.30;;
2173;SDS011;1093;51.424;11.764;2024-03-22T06:04:08;32.30;;;17.03;;
2173;SDS011;1093;51.424;11.764;2024-03-22T06:06:36;33.73;;;18.90;;
2173;SDS011;1093;51.424;11.764;2024-03-22T06:09:03;33.83;;;18.47;;
2173;SDS011;1093;51.424;11.764;2024-03-22T06:11:29;36.73;;;19.07;;
2173;SDS011;1093;51.424;11.764;2024-03-22T06:13:56;37.97;;;21.50;;
2173;SDS011;1093;51.424;11.764;2024-03-22T06:16:22;37.67;;;21.90;;
2173;SDS011;1093;51.424;11.764;2024-03-22T06:18:49;38.07;;;21.23;;
2173;SDS011;1093;51.424;11.764;2024-03-22T06:21:14;39.00;;;19.90;;
2173;SDS011;1093;51.424;11.764;2024-03-22T06:23:48;37.83;;;20.33;;
2173;SDS011;1093;51.424;11.764;2024-03-22T06:26:14;49.77;;;23.27;;
2173;SDS011;1093;51.424;11.764;2024-03-22T06:28:41;46.47;;;23.17;;
2173;SDS011;1093;51.424;11.764;2024-03-22T06:31:06;43.23;;;23.37;;
2173;SDS011;1093;51.424;11.764;2024-03-22T06:33:33;48.10;;;22.83;;
2173;SDS011;1093;51.424;11.764;2024-03-22T06:35:59;42.80;;;22.80;;
2173;SDS011;1093;51.424;11.764;2024-03-22T06:38:26;45.47;;;21.70;;
2173;SDS011;1093;51.424;11.764;2024-03-22T06:40:53;45.63;;;24.83;;
2173;SDS011;1093;51.424;11.764;2024-03-22T06:43:20;47.47;;;22.70;;
2173;SDS011;1093;51.424;11.764;2024-03-22T06:45:45;45.53;;;23.10;;
2173;SDS011;1093;51.424;11.764;2024-03-22T06:48:12;45.10;;;22.90;;
2173;SDS011;1093;51.424;11.764;2024-03-22T06:50:39;40.10;;;21.53;;
2173;SDS011;1093;51.424;11.764;2024-03-22T06:53:07;39.37;;;22.67;;
2173;SDS011;1093;51.424;11.764;2024-03-22T06:55:35;45.43;;;23.30;;
2173;SDS011;1093;51.424;11.764;2024-03-22T06:58:03;37.67;;;21.57;;
2173;SDS011;1093;51.424;11.764;2024-03-22T07:00:30;39.50;;;21.50;;
2173;SDS011;1093;51.424;11.764;2024-03-22T07:02:59;44.83;;;24.10;;
2173;SDS011;1093;51.424;11.764;2024-03-22T07:05:27;45.03;;;20.73;;
2173;SDS011;1093;51.424;11.764;2024-03-22T07:07:54;53.43;;;24.60;;
2173;SDS011;1093;51.424;11.764;2024-03-22T07:10:22;44.17;;;21.43;;
2173;SDS011;1093;51.424;11.764;2024-03-22T07:12:53;44.67;;;23.50;;
2173;SDS011;1093;51.424;11.764;2024-03-22T07:15:22;52.93;;;23.07;;
2173;SDS011;1093;51.424;11.764;2024-03-22T07:17:50;39.63;;;23.13;;
2173;SDS011;1093;51.424;11.764;2024-03-22T07:20:17;48.30;;;24.43;;
2173;SDS011;1093;51.424;11.764;2024-03-22T07:22:48;45.40;;;22.60;;
2173;SDS011;1093;51.424;11.764;2024-03-22T07:25:14;52.07;;;26.60;;
2173;SDS011;1093;51.424;11.764;2024-03-22T07:27:41;51.70;;;23.77;;
2173;SDS011;1093;51.424;11.764;2024-03-22T07:30:11;46.90;;;24.57;;
2173;SDS011;1093;51.424;11.764;2024-03-22T07:32:40;45.67;;;25.47;;
2173;SDS011;1093;51.424;11.764;2024-03-22T07:35:06;41.23;;;24.23;;
2173;SDS011;1093;51.424;11.764;2024-03-22T07:37:36;50.97;;;25.00;;
2173;SDS011;1093;51.424;11.764;2024-03-22T07:40:04;43.50;;;23.60;;
2173;SDS011;1093;51.424;11.764;2024-03-22T07:42:32;47.63;;;23.60;;
2173;SDS011;1093;51.424;11.764;2024-03-22T07:44:58;41.77;;;24.60;;
2173;SDS011;1093;51.424;11.764;2024-03-22T07:47:27;43.77;;;24.40;;
2173;SDS011;1093;51.424;11.764;2024-03-22T07:49:55;44.63;;;23.97;;
2173;SDS011;1093;51.424;11.764;2024-03-22T07:52:22;49.10;;;25.30;;
2173;SDS011;1093;51.424;11.764;2024-03-22T07:54:49;47.07;;;25.87;;
2173;SDS011;1093;51.424;11.764;2024-03-22T07:57:18;48.37;;;24.30;;
2173;SDS011;1093;51.424;11.764;2024-03-22T07:59:43;46.10;;;24.00;;
2173;SDS011;1093;51.424;11.764;2024-03-22T08:02:10;43.63;;;22.90;;
2173;SDS011;1093;51.424;11.764;2024-03-22T08:04:40;38.73;;;22.40;;
2173;SDS011;1093;51.424;11.764;2024-03-22T08:07:08;51.37;;;24.40;;
2173;SDS011;1093;51.424;11.764;2024-03-22T08:09:34;43.47;;;22.33;;
2173;SDS011;1093;51.424;11.764;2024-03-22T08:12:01;53.30;;;26.40;;
2173;SDS011;1093;51.424;11.764;2024-03-22T08:14:27;46.13;;;23.70;;
2173;SDS011;1093;51.424;11.764;2024-03-22T08:16:54;43.70;;;23.27;;
2173;SDS011;1093;51.424;11.764;2024-03-22T08:19:21;45.63;;;24.20;;
2173;SDS011;1093;51.424;11.764;2024-03-22T08:21:47;39.03;;;21.50;;
2173;SDS011;1093;51.424;11.764;2024-03-22T08:24:16;39.67;;;21.50;;
2173;SDS011;1093;51.424;11.764;2024-03-22T08:26:46;39.80;;;24.40;;
2173;SDS011;1093;51.424;11.764;2024-03-22T08:29:12;51.77;;;24.97;;
2173;SDS011;1093;51.424;11.764;2024-03-22T08:31:40;45.17;;;21.73;;
2173;SDS011;1093;51.424;11.764;2024-03-22T08:34:05;43.80;;;23.00;;
2173;SDS011;1093;51.424;11.764;2024-03-22T08:36:35;44.97;;;20.40;;
2173;SDS011;1093;51.424;11.764;2024-03-22T08:39:01;37.80;;;20.77;;
2173;SDS011;1093;51.424;11.764;2024-03-22T08:41:31;36.57;;;20.53;;
2173;SDS011;1093;51.424;11.764;2024-03-22T08:43:58;37.37;;;19.37;;
2173;SDS011;1093;51.424;11.764;2024-03-22T08:46:25;40.30;;;21.50;;
2173;SDS011;1093;51.424;11.764;2024-03-22T08:48:54;43.13;;;22.50;;
2173;SDS011;1093;51.424;11.764;2024-03-22T08:51:21;34.10;;;19.00;;
2173;SDS011;1093;51.424;11.764;2024-03-22T08:53:52;36.83;;;19.77;;
2173;SDS011;1093;51.424;11.764;2024-03-22T08:56:35;47.10;;;21.87;;
2173;SDS011;1093;51.424;11.764;2024-03-22T08:59:02;38.40;;;22.50;;
2173;SDS011;1093;51.424;11.764;2024-03-22T09:01:28;36.53;;;19.43;;
2173;SDS011;1093;51.424;11.764;2024-03-22T09:03:55;42.90;;;21.20;;
2173;SDS011;1093;51.424;11.764;2024-03-22T09:06:21;32.87;;;17.47;;
2173;SDS011;1093;51.424;11.764;2024-03-22T09:08:48;31.70;;;18.40;;
2173;SDS011;1093;51.424;11.764;2024-03-22T09:11:14;27.33;;;16.47;;
2173;SDS011;1093;51.424;11.764;2024-03-22T09:13:42;34.80;;;19.77;;
2173;SDS011;1093;51.424;11.764;2024-03-22T09:16:14;31.53;;;18.50;;
2173;SDS011;1093;51.424;11.764;2024-03-22T09:19:00;34.27;;;18.73;;
2173;SDS011;1093;51.424;11.764;2024-03-22T09:21:47;34.73;;;18.03;;
2173;SDS011;1093;51.424;11.764;2024-03-22T09:24:16;32.80;;;17.90;;
2173;SDS011;1093;51.424;11.764;2024-03-22T09:26:42;29.07;;;16.10;;
2173;SDS011;1093;51.424;11.764;2024-03-22T09:29:14;27.80;;;14.67;;
2173;SDS011;1093;51.424;11.764;2024-03-22T09:31:40;27.50;;;17.13;;
2173;SDS011;1093;51.424;11.764;2024-03-22T09:34:07;32.90;;;15.70;;
2173;SDS011;1093;51.424;11.764;2024-03-22T09:36:33;27.37;;;14.70;;
2173;SDS011;1093;51.424;11.764;2024-03-22T09:39:01;31.57;;;16.40;;
2173;SDS011;1093;51.424;11.764;2024-03-22T09:41:27;28.00;;;15.10;;
2173;SDS011;1093;51.424;11.764;2024-03-22T09:43:57;30.40;;;15.73;;
2173;SDS011;1093;51.424;11.764;2024-03-22T09:46:26;31.90;;;16.30;;
2173;SDS011;1093;51.424;11.764;2024-03-22T09:48:54;22.30;;;13.60;;
2173;SDS011;1093;51.424;11.764;2024-03-22T09:51:23;28.90;;;15.23;;
2173;SDS011;1093;51.424;11.764;2024-03-22T09:53:51;31.03;;;16.00;;
2173;SDS011;1093;51.424;11.764;2024-03-22T09:56:18;22.90;;;14.97;;
2173;SDS011;1093;51.424;11.764;2024-03-22T09:58:47;24.20;;;14.47;;
2173;SDS011;1093;51.424;11.764;2024-03-22T10:01:13;24.90;;;15.23;;
2173;SDS011;1093;51.424;11.764;2024-03-22T10:03:43;28.43;;;15.23;;
2173;SDS011;1093;51.424;11.764;2024-03-22T10:06:09;23.53;;;14.10;;
2173;SDS011;1093;51.424;11.764;2024-03-22T10:08:41;24.20;;;13.63;;
2173;SDS011;1093;51.424;11.764;2024-03-22T10:11:07;23.87;;;14.40;;
2173;SDS011;1093;51.424;11.764;2024-03-22T10:13:37;24.40;;;12.57;;
2173;SDS011;1093;51.424;11.764;2024-03-22T10:16:08;20.60;;;13.30;;
2173;SDS011;1093;51.424;11.764;2024-03-22T10:18:40;21.83;;;12.37;;
2173;SDS011;1093;51.424;11.764;2024-03-22T10:21:08;21.50;;;13.30;;
2173;SDS011;1093;51.424;11.764;2024-03-22T10:23:35;26.47;;;15.63;;
2173;SDS011;1093;51.424;11.764;2024-03-22T10:26:01;31.53;;;15.00;;
2173;SDS011;1093;51.424;11.764;2024-03-22T10:28:32;22.70;;;13.77;;
2173;SDS011;1093;51.424;11.764;2024-03-22T10:30:59;25.50;;;14.60;;
2173;SDS011;1093;51.424;11.764;2024-03-22T10:33:27;22.87;;;14.77;;
2173;SDS011;1093;51.424;11.764;2024-03-22T10:35:55;26.00;;;16.33;;
2173;SDS011;1093;51.424;11.764;2024-03-22T10:38:22;32.67;;;15.10;;
2173;SDS011;1093;51.424;11.764;2024-03-22T10:40:48;26.30;;;15.87;;
2173;SDS011;1093;51.424;11.764;2024-03-22T10:43:17;25.87;;;18.53;;
2173;SDS011;1093;51.424;11.764;2024-03-22T10:45:43;26.83;;;15.97;;
2173;SDS011;1093;51.424;11.764;2024-03-22T10:48:17;28.33;;;15.60;;
2173;SDS011;1093;51.424;11.764;2024-03-22T10:50:45;26.97;;;15.43;;
2173;SDS011;1093;51.424;11.764;2024-03-22T10:53:16;32.50;;;15.60;;
2173;SDS011;1093;51.424;11.764;2024-03-22T10:55:48;23.40;;;14.40;;
2173;SDS011;1093;51.424;11.764;2024-03-22T10:58:21;26.77;;;15.60;;
2173;SDS011;1093;51.424;11.764;2024-03-22T11:00:47;31.47;;;17.20;;
2173;SDS011;1093;51.424;11.764;2024-03-22T11:03:20;25.63;;;15.53;;
2173;SDS011;1093;51.424;11.764;2024-03-22T11:05:46;28.30;;;15.23;;
2173;SDS011;1093;51.424;11.764;2024-03-22T11:08:25;30.53;;;16.63;;
2173;SDS011;1093;51.424;11.764;2024-03-22T11:10:52;28.77;;;16.47;;
2173;SDS011;1093;51.424;11.764;2024-03-22T11:13:21;26.00;;;17.93;;
2173;SDS011;1093;51.424;11.764;2024-03-22T11:15:47;27.53;;;16.70;;
2173;SDS011;1093;51.424;11.764;2024-03-22T11:18:17;28.90;;;17.03;;
2173;SDS011;1093;51.424;11.764;2024-03-22T11:20:43;29.60;;;18.70;;
2173;SDS011;1093;51.424;11.764;2024-03-22T11:23:11;23.30;;;17.03;;
2173;SDS011;1093;51.424;11.764;2024-03-22T11:25:44;28.90;;;17.30;;
2173;SDS011;1093;51.424;11.764;2024-03-22T11:28:15;26.20;;;16.77;;
2173;SDS011;1093;51.424;11.764;2024-03-22T11:30:44;29.47;;;16.97;;
2173;SDS011;1093;51.424;11.764;2024-03-22T11:33:15;25.17;;;16.63;;
2173;SDS011;1093;51.424;11.764;2024-03-22T11:35:41;30.40;;;18.10;;
2173;SDS011;1093;51.424;11.764;2024-03-22T11:38:09;24.77;;;16.67;;
2173;SDS011;1093;51.424;11.764;2024-03-22T11:40:35;30.87;;;16.80;;
2173;SDS011;1093;51.424;11.764;2024-03-22T11:43:04;26.77;;;15.80;;
2173;SDS011;1093;51.424;11.764;2024-03-22T11:45:30;29.50;;;17.00;;
2173;SDS011;1093;51.424;11.764;2024-03-22T11:48:04;29.93;;;18.20;;
2173;SDS011;1093;51.424;11.764;2024-03-22T11:50:37;28.57;;;19.30;;
2173;SDS011;1093;51.424;11.764;2024-03-22T11:53:06;23.83;;;16.10;;
2173;SDS011;1093;51.424;11.764;2024-03-22T11:55:35;31.53;;;17.37;;
2173;SDS011;1093;51.424;11.764;2024-03-22T11:58:13;31.90;;;20.03;;
2173;SDS011;1093;51.424;11.764;2024-03-22T12:00:40;30.60;;;18.17;;
2173;SDS011;1093;51.424;11.764;2024-03-22T12:03:10;27.57;;;18.70;;
2173;SDS011;1093;51.424;11.764;2024-03-22T12:05:37;28.73;;;17.97;;
2173;SDS011;1093;51.424;11.764;2024-03-22T12:08:15;31.50;;;19.43;;
2173;SDS011;1093;51.424;11.764;2024-03-22T12:10:44;25.17;;;16.47;;
2173;SDS011;1093;51.424;11.764;2024-03-22T12:13:21;29.83;;;18.03;;
2173;SDS011;1093;51.424;11.764;2024-03-22T12:15:48;28.77;;;18.67;;
2173;SDS011;1093;51.424;11.764;2024-03-22T12:18:15;34.70;;;18.47;;
2173;SDS011;1093;51.424;11.764;2024-03-22T12:23:57;31.87;;;19.67;;
2173;SDS011;1093;51.424;11.764;2024-03-22T12:26:24;33.70;;;20.50;;
2173;SDS011;1093;51.424;11.764;2024-03-22T12:28:54;29.87;;;18.50;;
2173;SDS011;1093;51.424;11.764;2024-03-22T12:31:24;35.87;;;20.40;;
2173;SDS011;1093;51.424;11.764;2024-03-22T12:33:50;29.43;;;20.57;;
2173;SDS011;1093;51.424;11.764;2024-03-22T12:36:17;34.07;;;20.33;;
2173;SDS011;1093;51.424;11.764;2024-03-22T12:38:47;41.00;;;20.27;;
2173;SDS011;1093;51.424;11.764;2024-03-22T12:41:14;37.87;;;20.40;;
2173;SDS011;1093;51.424;11.764;2024-03-22T12:43:41;34.40;;;20.60;;
2173;SDS011;1093;51.424;11.764;2024-03-22T12:46:12;31.70;;;19.53;;
2173;SDS011;1093;51.424;11.764;2024-03-22T12:48:40;30.67;;;19.23;;
2173;SDS011;1093;51.424;11.764;2024-03-22T12:51:08;30.50;;;19.00;;
2173;SDS011;1093;51.424;11.764;2024-03-22T12:53:34;30.23;;;19.40;;
2173;SDS011;1093;51.424;11.764;2024-03-22T12:56:01;30.53;;;19.80;;
2173;SDS011;1093;51.424;11.764;2024-03-22T12:58:36;33.67;;;18.80;;
2173;SDS011;1093;51.424;11.764;2024-03-22T13:01:08;28.93;;;18.03;;
2173;SDS011;1093;51.424;11.764;2024-03-22T13:03:37;31.73;;;18.37;;
2173;SDS011;1093;51.424;11.764;2024-03-22T13:06:04;30.70;;;18.10;;
2173;SDS011;1093;51.424;11.764;2024-03-22T13:08:31;37.23;;;18.87;;
2173;SDS011;1093;51.424;11.764;2024-03-22T13:11:01;29.70;;;19.67;;
2173;SDS011;1093;51.424;11.764;2024-03-22T13:13:27;27.13;;;18.30;;
2173;SDS011;1093;51.424;11.764;2024-03-22T13:15:56;26.73;;;17.20;;
2173;SDS011;1093;51.424;11.764;2024-03-22T13:18:24;33.20;;;18.43;;
2173;SDS011;1093;51.424;11.764;2024-03-22T13:20:54;27.83;;;16.67;;
2173;SDS011;1093;51.424;11.764;2024-03-22T13:23:22;24.57;;;16.27;;
2173;SDS011;1093;51.424;11.764;2024-03-22T13:25:49;31.70;;;16.10;;
2173;SDS011;1093;51.424;11.764;2024-03-22T13:28:16;27.10;;;14.97;;
2173;SDS011;1093;51.424;11.764;2024-03-22T13:30:48;26.43;;;16.13;;
2173;SDS011;1093;51.424;11.764;2024-03-22T13:33:14;26.10;;;14.93;;
2173;SDS011;1093;51.424;11.764;2024-03-22T13:35:41;27.57;;;15.50;;
2173;SDS011;1093;51.424;11.764;2024-03-22T13:38:14;25.40;;;14.80;;
2173;SDS011;1093;51.424;11.764;2024-03-22T13:40:42;27.73;;;14.57;;
2173;SDS011;1093;51.424;11.764;2024-03-22T13:43:17;24.03;;;14.50;;
2173;SDS011;1093;51.424;11.764;2024-03-22T13:45:44;23.00;;;15.63;;
2173;SDS011;1093;51.424;11.764;2024-03-22T13:51:15;22.50;;;14.33;;
2173;SDS011;1093;51.424;11.764;2024-03-22T13:53:42;25.40;;;15.13;;
2173;SDS011;1093;51.424;11.764;2024-03-22T13:56:09;23.10;;;14.93;;
2173;SDS011;1093;51.424;11.764;2024-03-22T13:58:34;28.53;;;14.60;;
2173;SDS011;1093;51.424;11.764;2024-03-22T14:01:02;20.80;;;13.33;;
2173;SDS011;1093;51.424;11.764;2024-03-22T14:03:31;27.13;;;14.60;;
2173;SDS011;1093;51.424;11.764;2024-03-22T14:05:58;25.83;;;14.70;;
2173;SDS011;1093;51.424;11.764;2024-03-22T14:08:24;20.63;;;12.97;;
2173;SDS011;1093;51.424;11.764;2024-03-22T14:10:54;25.33;;;14.00;;
2173;SDS011;1093;51.424;11.764;2024-03-22T14:13:20;19.50;;;13.80;;
2173;SDS011;1093;51.424;11.764;2024-03-22T14:15:47;21.90;;;12.20;;
2173;SDS011;1093;51.424;11.764;2024-03-22T14:18:17;20.70;;;12.37;;
2173;SDS011;1093;51.424;11.764;2024-03-22T14:20:44;26.17;;;13.20;;
2173;SDS011;1093;51.424;11.764;2024-03-22T14:23:10;20.67;;;12.03;;
2173;SDS011;1093;51.424;11.764;2024-03-22T14:25:37;18.30;;;11.27;;
2173;SDS011;1093;51.424;11.764;2024-03-22T14:28:05;21.37;;;12.27;;
2173;SDS011;1093;51.424;11.764;2024-03-22T14:30:32;17.70;;;11.90;;
2173;SDS011;1093;51.424;11.764;2024-03-22T14:32:58;17.97;;;11.43;;
2173;SDS011;1093;51.424;11.764;2024-03-22T14:35:25;15.10;;;11.23;;
2173;SDS011;1093;51.424;11.764;2024-03-22T14:37:51;20.47;;;12.37;;
2173;SDS011;1093;51.424;11.764;2024-03-22T14:40:18;20.87;;;11.83;;
2173;SDS011;1093;51.424;11.764;2024-03-22T14:42:44;22.07;;;13.00;;
2173;SDS011;1093;51.424;11.764;2024-03-22T14:45:12;14.33;;;10.90;;